createdAt,value
2023-03-31T00:00:27.903Z,99965.91
2023-03-31T00:01:42.955Z,100119.88
2023-03-31T00:04:12.162Z,100108.50
2023-03-31T00:05:43.017Z,99956.28
2023-03-31T00:06:40.997Z,100106.53
2023-03-31T00:09:11.799Z,100109.22
2023-03-31T00:10:57.951Z,99960.34
2023-03-31T00:11:41.705Z,100113.13
2023-03-31T00:14:11.034Z,100101.03
2023-03-31T00:16:12.927Z,99953.28
2023-03-31T00:16:41.335Z,100101.03
2023-03-31T00:19:11.649Z,100092.84
2023-03-31T00:21:28.227Z,99936.41
2023-03-31T00:21:41.996Z,100086.09
2023-03-31T00:24:12.241Z,100087.34
2023-03-31T00:26:42.224Z,100083.25
2023-03-31T00:26:44.270Z,99934.91
2023-03-31T00:29:11.162Z,100078.63
2023-03-31T00:31:41.160Z,100065.81
2023-03-31T00:32:00.349Z,99920.25
2023-03-31T00:34:10.753Z,100060.47
2023-03-31T00:36:39.576Z,100053.72
2023-03-31T00:37:16.185Z,99899.28
2023-03-31T00:39:09.659Z,100058.34
2023-03-31T00:41:39.748Z,100052.31
2023-03-31T00:42:31.941Z,99904.84
2023-03-31T00:44:08.039Z,100050.88
2023-03-31T00:46:38.380Z,100043.44
2023-03-31T00:47:46.991Z,99890.94
2023-03-31T00:49:08.454Z,100036.66
2023-03-31T00:51:37.445Z,100038.63
2023-03-31T00:53:01.929Z,99877.03
2023-03-31T00:54:07.369Z,100030.44
2023-03-31T00:56:37.305Z,100033.09
2023-03-31T00:58:17.941Z,99866.50
2023-03-31T00:59:07.689Z,100021.00
2023-03-31T01:01:38.429Z,100025.63
2023-03-31T01:03:33.435Z,99857.59
2023-03-31T01:04:08.858Z,100023.50
2023-03-31T01:06:38.790Z,100018.16
2023-03-31T01:08:49.330Z,99868.16
2023-03-31T01:09:08.347Z,100015.34
2023-03-31T01:11:36.375Z,100008.59
2023-03-31T01:14:05.230Z,99847.41
2023-03-31T01:14:08.673Z,100005.19
2023-03-31T01:16:38.549Z,99991.13
2023-03-31T01:19:08.937Z,99985.81
2023-03-31T01:19:21.377Z,99827.75
2023-03-31T01:21:39.424Z,99978.34
2023-03-31T01:24:08.788Z,99988.31
2023-03-31T01:24:36.963Z,99828.50
2023-03-31T01:26:37.529Z,99976.19
2023-03-31T01:29:05.879Z,99965.53
2023-03-31T01:29:51.957Z,99804.00
2023-03-31T01:31:35.864Z,99954.84
2023-03-31T01:34:06.834Z,99949.50
2023-03-31T01:35:06.911Z,99788.06
2023-03-31T01:36:35.346Z,99948.09
2023-03-31T01:39:04.319Z,99937.44
2023-03-31T01:40:22.300Z,99785.28
2023-03-31T01:41:34.263Z,99930.66
2023-03-31T01:44:04.687Z,99930.66
2023-03-31T01:45:38.728Z,99770.09
2023-03-31T01:46:34.624Z,99925.31
2023-03-31T01:49:10.483Z,99915.91
2023-03-31T01:50:54.933Z,99754.72
2023-03-31T01:51:40.827Z,99901.84
2023-03-31T01:54:10.405Z,99906.47
2023-03-31T01:56:10.945Z,99742.13
2023-03-31T01:56:38.775Z,99890.47
2023-03-31T01:59:08.716Z,99885.13
2023-03-31T02:01:25.972Z,99730.63
2023-03-31T02:01:39.115Z,99882.28
2023-03-31T02:04:08.532Z,99872.88
2023-03-31T02:06:38.031Z,99876.28
2023-03-31T02:06:41.292Z,99729.16
2023-03-31T02:09:07.022Z,99866.13
2023-03-31T02:11:36.931Z,99867.38
2023-03-31T02:11:56.955Z,99711.53
2023-03-31T02:14:06.791Z,99860.59
2023-03-31T02:16:37.170Z,99852.59
2023-03-31T02:17:12.223Z,99696.91
2023-03-31T02:19:07.501Z,99849.94
2023-03-31T02:21:37.380Z,99845.88
2023-03-31T02:22:27.973Z,99687.59
2023-03-31T02:24:07.206Z,99839.09
2023-03-31T02:26:37.074Z,99825.59
2023-03-31T02:27:43.961Z,99674.44
2023-03-31T02:29:06.985Z,99819.03
2023-03-31T02:31:37.015Z,99816.88
2023-03-31T02:32:59.349Z,99667.38
2023-03-31T02:34:07.725Z,99812.25
2023-03-31T02:36:37.568Z,99794.84
2023-03-31T02:38:14.781Z,99643.13
2023-03-31T02:39:07.553Z,99787.41
2023-03-31T02:41:35.811Z,99782.56
2023-03-31T02:43:29.699Z,99630.50
2023-03-31T02:44:04.682Z,99773.84
2023-03-31T02:46:34.636Z,99776.38
2023-03-31T02:48:45.290Z,99618.63
2023-03-31T02:49:04.263Z,99763.75
2023-03-31T02:51:32.736Z,99767.84
2023-03-31T02:54:00.924Z,99603.41
2023-03-31T02:54:01.028Z,99757.19
2023-03-31T02:56:41.880Z,99742.56
2023-03-31T02:59:11.887Z,99741.16
2023-03-31T02:59:31.062Z,99586.03
2023-03-31T03:01:41.914Z,99735.84
2023-03-31T03:04:12.288Z,99725.16
2023-03-31T03:04:45.760Z,99582.72
2023-03-31T03:06:42.195Z,99714.50
2023-03-31T03:09:18.019Z,99703.09
2023-03-31T03:10:00.979Z,99558.44
2023-03-31T03:11:45.796Z,99702.38
2023-03-31T03:14:15.302Z,99687.09
2023-03-31T03:15:15.957Z,99544.53
2023-03-31T03:16:44.246Z,99693.16
2023-03-31T03:19:14.534Z,99680.31
2023-03-31T03:20:30.676Z,99534.16
2023-03-31T03:21:44.874Z,99686.19
2023-03-31T03:24:14.834Z,99676.09
2023-03-31T03:25:46.256Z,99525.25
2023-03-31T03:26:43.535Z,99680.00
2023-03-31T03:29:13.729Z,99672.53
2023-03-31T03:31:02.018Z,99510.78
2023-03-31T03:31:44.109Z,99665.84
2023-03-31T03:34:14.025Z,99673.84
2023-03-31T03:36:17.354Z,99520.81
2023-03-31T03:36:42.655Z,99664.41
2023-03-31T03:39:11.326Z,99654.44
2023-03-31T03:41:32.976Z,99498.78
2023-03-31T03:41:41.287Z,99644.50
2023-03-31T03:44:09.993Z,99645.72
2023-03-31T03:46:40.285Z,99637.72
2023-03-31T03:46:48.381Z,99483.75
2023-03-31T03:49:10.590Z,99622.44
2023-03-31T03:51:40.945Z,99622.44
2023-03-31T03:52:03.934Z,99475.06
2023-03-31T03:54:10.304Z,99604.63
2023-03-31T03:56:40.572Z,99591.13
2023-03-31T03:57:19.261Z,99449.31
2023-03-31T03:59:11.071Z,99590.03
2023-03-31T04:01:41.441Z,99572.91
2023-03-31T04:02:35.004Z,99438.19
2023-03-31T04:04:11.777Z,99588.22
2023-03-31T04:06:42.039Z,99586.56
2023-03-31T04:07:50.490Z,99443.03
2023-03-31T04:09:12.332Z,99588.13
2023-03-31T04:11:42.698Z,99583.09
2023-03-31T04:13:06.718Z,99432.44
2023-03-31T04:14:13.551Z,99575.25
2023-03-31T04:16:44.016Z,99561.38
2023-03-31T04:18:21.973Z,99410.72
2023-03-31T04:19:14.153Z,99555.34
2023-03-31T04:21:42.010Z,99551.38
2023-03-31T04:23:37.019Z,99397.94
2023-03-31T04:24:11.453Z,99540.03
2023-03-31T04:26:41.728Z,99521.88
2023-03-31T04:28:51.909Z,99375.53
2023-03-31T04:29:11.978Z,99529.72
2023-03-31T04:31:42.366Z,99512.34
2023-03-31T04:34:06.982Z,99360.13
2023-03-31T04:34:12.734Z,99505.56
2023-03-31T04:36:42.433Z,99493.50
2023-03-31T04:39:10.841Z,99482.09
2023-03-31T04:39:21.962Z,99334.91
2023-03-31T04:41:39.486Z,99476.06
2023-03-31T04:44:09.758Z,99455.84
2023-03-31T04:44:36.943Z,99310.47
2023-03-31T04:46:40.141Z,99462.56
2023-03-31T04:49:09.578Z,99446.09
2023-03-31T04:49:51.959Z,99298.41
2023-03-31T04:51:38.983Z,99451.59
2023-03-31T04:54:09.288Z,99438.09
2023-03-31T04:55:06.978Z,99290.63
2023-03-31T04:56:39.631Z,99448.78
2023-03-31T04:59:09.879Z,99439.38
2023-03-31T05:00:22.301Z,99285.59
2023-03-31T05:01:40.507Z,99429.66
2023-03-31T05:04:09.940Z,99427.84
2023-03-31T05:05:38.208Z,99277.09
2023-03-31T05:06:40.168Z,99429.78
2023-03-31T05:09:08.776Z,99425.75
2023-03-31T05:10:53.695Z,99265.78
2023-03-31T05:11:41.742Z,99419.00
2023-03-31T05:14:12.097Z,99408.88
2023-03-31T05:16:09.086Z,99253.94
2023-03-31T05:16:42.416Z,99410.09
2023-03-31T05:19:12.918Z,99410.09
2023-03-31T05:21:25.464Z,99239.84
2023-03-31T05:21:43.247Z,99398.78
2023-03-31T05:24:12.803Z,99390.63
2023-03-31T05:26:40.947Z,99233.53
2023-03-31T05:26:41.555Z,99390.63
2023-03-31T05:29:10.952Z,99388.63
2023-03-31T05:31:40.329Z,99386.69
2023-03-31T05:31:55.966Z,99227.97
2023-03-31T05:34:10.736Z,99381.34
2023-03-31T05:36:40.309Z,99376.00
2023-03-31T05:37:11.298Z,99222.25
2023-03-31T05:39:10.634Z,99373.91
2023-03-31T05:41:40.469Z,99368.56
2023-03-31T05:42:26.993Z,99215.97
2023-03-31T05:44:09.381Z,99357.88
2023-03-31T05:46:38.368Z,99363.94
2023-03-31T05:47:42.035Z,99209.44
2023-03-31T05:49:07.750Z,99356.47
2023-03-31T05:51:37.784Z,99347.81
2023-03-31T05:52:56.986Z,99186.47
2023-03-31T05:54:06.529Z,99345.13
2023-03-31T05:56:36.322Z,99344.41
2023-03-31T05:58:11.921Z,99182.94
2023-03-31T05:59:05.586Z,99338.06
2023-03-31T06:01:35.949Z,99331.94
2023-03-31T06:03:27.009Z,99175.94
2023-03-31T06:04:06.469Z,99324.69
2023-03-31T06:06:37.746Z,99324.69
2023-03-31T06:08:41.747Z,99160.56
2023-03-31T06:09:06.665Z,99316.53
2023-03-31T06:11:36.965Z,99321.00
2023-03-31T06:13:56.963Z,99168.88
2023-03-31T06:14:07.138Z,99324.75
2023-03-31T06:16:37.310Z,99324.22
2023-03-31T06:19:07.700Z,99332.22
2023-03-31T06:19:11.960Z,99177.78
2023-03-31T06:21:37.777Z,99320.44
2023-03-31T06:24:06.564Z,99321.19
2023-03-31T06:24:27.004Z,99175.00
2023-03-31T06:26:36.350Z,99315.97
2023-03-31T06:29:05.756Z,99317.41
2023-03-31T06:29:42.281Z,99163.69
2023-03-31T06:31:36.220Z,99323.44
2023-03-31T06:34:06.229Z,99313.16
2023-03-31T06:34:57.997Z,99158.13
2023-03-31T06:36:37.475Z,99309.25
2023-03-31T06:39:07.050Z,99307.84
2023-03-31T06:40:13.056Z,99157.41
2023-03-31T06:41:35.690Z,99299.28
2023-03-31T06:44:05.914Z,99299.28
2023-03-31T06:45:27.983Z,99148.31
2023-03-31T06:46:36.191Z,99298.59
2023-03-31T06:49:06.650Z,99297.28
2023-03-31T06:50:42.998Z,99137.19
2023-03-31T06:51:35.778Z,99302.63
2023-03-31T06:54:04.512Z,99294.63
2023-03-31T06:55:57.963Z,99140.53
2023-03-31T06:56:34.829Z,99291.97
2023-03-31T06:59:04.723Z,99301.25
2023-03-31T07:01:12.980Z,99131.50
2023-03-31T07:01:35.140Z,99295.94
2023-03-31T07:04:05.680Z,99277.09
2023-03-31T07:06:28.329Z,99127.97
2023-03-31T07:06:35.148Z,99287.94
2023-03-31T07:09:05.502Z,99283.97
2023-03-31T07:11:36.104Z,99284.13
2023-03-31T07:11:43.973Z,99127.22
2023-03-31T07:14:06.734Z,99280.50
2023-03-31T07:16:37.092Z,99282.03
2023-03-31T07:16:59.045Z,99126.47
2023-03-31T07:19:07.581Z,99278.13
2023-03-31T07:21:38.230Z,99275.28
2023-03-31T07:22:14.761Z,99119.44
2023-03-31T07:24:09.381Z,99270.53
2023-03-31T07:26:40.404Z,99268.41
2023-03-31T07:27:30.718Z,99111.09
2023-03-31T07:29:10.290Z,99269.66
2023-03-31T07:31:39.711Z,99256.19
2023-03-31T07:32:45.972Z,99099.81
2023-03-31T07:34:10.281Z,99253.53
2023-03-31T07:36:39.941Z,99246.78
2023-03-31T07:38:01.010Z,99101.31
2023-03-31T07:39:08.978Z,99256.91
2023-03-31T07:41:39.230Z,99253.38
2023-03-31T07:43:16.006Z,99098.53
2023-03-31T07:44:09.466Z,99254.38
2023-03-31T07:46:40.029Z,99261.41
2023-03-31T07:48:31.004Z,99104.63
2023-03-31T07:49:10.626Z,99260.97
2023-03-31T07:51:41.025Z,99258.75
2023-03-31T07:53:45.975Z,99107.41
2023-03-31T07:54:10.433Z,99246.78
2023-03-31T07:56:40.749Z,99254.81
2023-03-31T07:59:00.978Z,99099.81
2023-03-31T07:59:11.012Z,99253.41
2023-03-31T08:01:41.345Z,99234.59
2023-03-31T08:04:12.511Z,99239.38
2023-03-31T08:04:15.971Z,99092.75
2023-03-31T08:06:42.078Z,99239.38
2023-03-31T08:09:12.340Z,99241.31
2023-03-31T08:09:30.996Z,99085.53
2023-03-31T08:11:42.603Z,99236.72
2023-03-31T08:14:12.628Z,99225.31
2023-03-31T08:14:45.967Z,99073.13
2023-03-31T08:16:41.371Z,99212.09
2023-03-31T08:19:11.862Z,99208.47
2023-03-31T08:20:04.530Z,99054.22
2023-03-31T08:21:41.035Z,99207.31
2023-03-31T08:24:09.642Z,99198.75
2023-03-31T08:25:21.992Z,99059.06
2023-03-31T08:26:39.054Z,99194.13
2023-03-31T08:29:09.314Z,99222.91
2023-03-31T08:30:37.047Z,99065.19
2023-03-31T08:31:39.663Z,99209.03
2023-03-31T08:34:08.756Z,99195.81
2023-03-31T08:35:51.966Z,99041.44
2023-03-31T08:36:38.162Z,99199.34
2023-03-31T08:39:08.548Z,99186.81
2023-03-31T08:41:07.355Z,99037.94
2023-03-31T08:41:38.820Z,99188.34
2023-03-31T08:44:09.217Z,99193.84
2023-03-31T08:46:22.997Z,99039.97
2023-03-31T08:46:38.463Z,99187.38
2023-03-31T08:49:07.298Z,99186.25
2023-03-31T08:51:37.610Z,99180.50
2023-03-31T08:51:37.977Z,99033.66
2023-03-31T08:54:06.719Z,99185.69
2023-03-31T08:56:35.627Z,99195.78
2023-03-31T08:56:53.062Z,99039.22
2023-03-31T08:59:07.724Z,99185.63
2023-03-31T09:01:47.805Z,99185.91
2023-03-31T09:02:08.219Z,99046.09
2023-03-31T09:04:16.778Z,99188.00
2023-03-31T09:06:47.013Z,99197.97
2023-03-31T09:07:24.078Z,99045.34
2023-03-31T09:09:17.049Z,99194.03
2023-03-31T09:11:45.763Z,99196.19
2023-03-31T09:12:39.303Z,99043.88
2023-03-31T09:14:15.918Z,99192.91
2023-03-31T09:16:44.691Z,99189.00
2023-03-31T09:17:55.040Z,99032.78
2023-03-31T09:19:14.461Z,99182.50
2023-03-31T09:21:43.943Z,99179.25
2023-03-31T09:23:10.013Z,99021.66
2023-03-31T09:24:12.973Z,99177.41
2023-03-31T09:26:42.914Z,99170.97
2023-03-31T09:28:25.344Z,99015.38
2023-03-31T09:29:12.729Z,99172.47
2023-03-31T09:31:41.578Z,99170.06
2023-03-31T09:33:40.946Z,99016.84
2023-03-31T09:34:10.198Z,99159.66
2023-03-31T09:36:38.854Z,99161.31
2023-03-31T09:38:56.289Z,99010.56
2023-03-31T09:39:09.114Z,99152.28
2023-03-31T09:41:39.359Z,99159.31
2023-03-31T09:44:09.599Z,99160.97
2023-03-31T09:44:12.002Z,99002.94
2023-03-31T09:46:39.911Z,99159.84
2023-03-31T09:49:09.449Z,99153.34
2023-03-31T09:49:27.068Z,99002.22
2023-03-31T09:51:38.918Z,99144.31
2023-03-31T09:54:09.147Z,99138.09
2023-03-31T09:54:42.079Z,98985.53
2023-03-31T09:56:39.712Z,99135.88
2023-03-31T09:59:09.319Z,99151.66
2023-03-31T09:59:56.956Z,98975.72
2023-03-31T10:01:37.743Z,99141.44
2023-03-31T10:04:06.568Z,99147.22
2023-03-31T10:05:21.021Z,98986.84
2023-03-31T10:06:36.913Z,99142.28
2023-03-31T10:09:07.328Z,99139.94
2023-03-31T10:10:35.746Z,98995.91
2023-03-31T10:11:37.505Z,99142.47
2023-03-31T10:14:07.784Z,99135.72
2023-03-31T10:15:51.028Z,98982.56
2023-03-31T10:16:38.263Z,99139.25
2023-03-31T10:19:08.619Z,99132.31
2023-03-31T10:21:06.190Z,99000.00
2023-03-31T10:21:38.750Z,99139.34
2023-03-31T10:24:08.201Z,99144.34
2023-03-31T10:26:21.965Z,98986.09
2023-03-31T10:26:38.348Z,99128.97
2023-03-31T10:29:07.550Z,99143.09
2023-03-31T10:31:36.296Z,99137.72
2023-03-31T10:31:38.351Z,98974.81
2023-03-31T10:34:06.312Z,99123.78
2023-03-31T10:36:35.585Z,99129.88
2023-03-31T10:36:54.369Z,98961.66
2023-03-31T10:39:05.903Z,99119.81
2023-03-31T10:41:36.238Z,99102.97
2023-03-31T10:42:10.024Z,98967.22
2023-03-31T10:44:05.886Z,99113.72
2023-03-31T10:46:34.633Z,99120.34
2023-03-31T10:47:24.768Z,98962.38
2023-03-31T10:49:04.526Z,99118.19
2023-03-31T10:51:34.154Z,99103.13
2023-03-31T10:52:40.002Z,98951.25
2023-03-31T10:54:03.587Z,99108.16
2023-03-31T10:56:33.938Z,99100.25
2023-03-31T10:57:55.089Z,98951.84
2023-03-31T10:59:05.789Z,99098.84
2023-03-31T11:01:36.839Z,99106.78
2023-03-31T11:03:10.049Z,98942.75
2023-03-31T11:04:06.504Z,99093.00
2023-03-31T11:06:36.934Z,99098.13
2023-03-31T11:08:25.319Z,98940.72
2023-03-31T11:09:07.736Z,99100.69
2023-03-31T11:11:36.889Z,99102.78
2023-03-31T11:13:41.023Z,98947.56
2023-03-31T11:14:05.732Z,99096.34
2023-03-31T11:16:34.683Z,99091.59
2023-03-31T11:18:55.993Z,98946.84
2023-03-31T11:19:04.067Z,99094.84
2023-03-31T11:21:33.945Z,99088.31
2023-03-31T11:24:04.287Z,99087.88
2023-03-31T11:24:10.973Z,98933.69
2023-03-31T11:26:33.149Z,99080.69
2023-03-31T11:29:02.499Z,99088.59
2023-03-31T11:29:26.025Z,98925.34
2023-03-31T11:31:32.887Z,99079.03
2023-03-31T11:34:02.967Z,99079.41
2023-03-31T11:34:40.957Z,98928.88
2023-03-31T11:36:31.857Z,99077.16
2023-03-31T11:39:01.740Z,99075.78
2023-03-31T11:39:56.050Z,98928.13
2023-03-31T11:41:31.669Z,99079.69
2023-03-31T11:44:02.034Z,99072.84
2023-03-31T11:45:10.983Z,98919.06
2023-03-31T11:46:32.521Z,99078.06
2023-03-31T11:49:01.553Z,99068.97
2023-03-31T11:50:25.992Z,98907.94
2023-03-31T11:51:30.917Z,99067.91
2023-03-31T11:54:01.166Z,99063.59
2023-03-31T11:55:41.092Z,98902.38
2023-03-31T11:56:30.928Z,99062.69
2023-03-31T11:58:59.912Z,99053.22
2023-03-31T12:00:55.825Z,98896.09
2023-03-31T12:01:29.367Z,99050.31
2023-03-31T12:03:58.971Z,99053.91
2023-03-31T12:06:11.320Z,98904.44
2023-03-31T12:06:28.400Z,99049.00
2023-03-31T12:08:58.288Z,99063.56
2023-03-31T12:11:27.021Z,98900.91
2023-03-31T12:11:27.271Z,99043.28
2023-03-31T12:13:56.606Z,99043.97
2023-03-31T12:16:26.608Z,99040.59
2023-03-31T12:16:41.787Z,98882.22
2023-03-31T12:18:54.976Z,99039.22
2023-03-31T12:21:24.013Z,99036.41
2023-03-31T12:21:57.280Z,98882.22
2023-03-31T12:23:52.525Z,99025.38
2023-03-31T12:26:20.774Z,99022.56
2023-03-31T12:27:12.966Z,98879.44
2023-03-31T12:28:49.598Z,99038.31
2023-03-31T12:31:19.016Z,99022.75
2023-03-31T12:32:29.039Z,98878.69
2023-03-31T12:33:48.909Z,99034.84
2023-03-31T12:36:17.963Z,99031.59
2023-03-31T12:37:43.964Z,98876.66
2023-03-31T12:38:46.800Z,99024.66
2023-03-31T12:41:16.491Z,99042.66
2023-03-31T12:42:59.170Z,98878.69
2023-03-31T12:43:46.063Z,99036.50
2023-03-31T12:46:15.102Z,99041.16
2023-03-31T12:48:13.743Z,98870.34
2023-03-31T12:48:44.853Z,99025.13
2023-03-31T12:51:14.415Z,99023.69
2023-03-31T12:53:28.723Z,98869.47
2023-03-31T12:53:44.437Z,99013.47
2023-03-31T12:56:14.115Z,99021.38
2023-03-31T12:58:43.666Z,99035.53
2023-03-31T12:58:44.064Z,98882.22
2023-03-31T13:01:14.075Z,99023.44
2023-03-31T13:03:44.428Z,99015.56
2023-03-31T13:03:59.027Z,98873.13
2023-03-31T13:06:14.323Z,99006.94
2023-03-31T13:08:43.767Z,99009.31
2023-03-31T13:09:14.059Z,98857.78
2023-03-31T13:11:14.078Z,99009.31
2023-03-31T13:13:58.021Z,99005.34
2023-03-31T13:14:29.013Z,98849.47
2023-03-31T13:16:28.564Z,98997.44
2023-03-31T13:18:58.833Z,98991.44
2023-03-31T13:19:44.000Z,98843.16
2023-03-31T13:21:29.094Z,98991.91
2023-03-31T13:23:59.427Z,98990.72
2023-03-31T13:24:59.271Z,98831.31
2023-03-31T13:26:29.764Z,98972.94
2023-03-31T13:28:59.869Z,98969.78
2023-03-31T13:30:14.951Z,98826.50
2023-03-31T13:31:28.630Z,98984.06
2023-03-31T13:33:58.618Z,98979.75
2023-03-31T13:35:29.722Z,98830.00
2023-03-31T13:36:28.932Z,98982.06
2023-03-31T13:38:59.139Z,98989.03
2023-03-31T13:40:45.032Z,98832.06
2023-03-31T13:41:29.511Z,98982.03
2023-03-31T13:43:59.815Z,98972.47
2023-03-31T13:46:00.090Z,98822.97
2023-03-31T13:46:30.226Z,98975.47
2023-03-31T13:48:59.322Z,98977.19
2023-03-31T13:51:15.027Z,98827.78
2023-03-31T13:51:28.004Z,98977.06
2023-03-31T13:53:57.809Z,98977.53
2023-03-31T13:59:16.032Z,98969.13
2023-03-31T14:01:46.401Z,98964.91
2023-03-31T14:01:54.000Z,98822.25
2023-03-31T14:04:16.302Z,98975.09
2023-03-31T14:06:45.613Z,98963.91
2023-03-31T14:07:09.250Z,98822.25
2023-03-31T14:09:15.879Z,98964.81
2023-03-31T14:11:45.766Z,98965.97
2023-03-31T14:12:26.005Z,98819.28
2023-03-31T14:14:13.987Z,98963.41
2023-03-31T14:16:43.298Z,98970.06
2023-03-31T14:17:41.360Z,98819.28
2023-03-31T14:19:12.723Z,98956.69
2023-03-31T14:21:43.327Z,98962.28
2023-03-31T14:22:57.129Z,98813.13
2023-03-31T14:24:15.876Z,98965.88
2023-03-31T14:26:46.238Z,98961.38
2023-03-31T14:28:12.060Z,98808.88
2023-03-31T14:29:16.485Z,98960.00
2023-03-31T14:31:46.913Z,98949.31
2023-03-31T14:33:26.982Z,98804.81
2023-03-31T14:34:17.326Z,98937.91
2023-03-31T14:36:47.698Z,98939.88
2023-03-31T14:38:42.011Z,98794.28
2023-03-31T14:39:17.165Z,98942.44
2023-03-31T14:41:46.502Z,98941.03
2023-03-31T14:44:16.731Z,98942.28
2023-03-31T14:44:34.102Z,98790.78
2023-03-31T14:46:47.071Z,98935.59
2023-03-31T14:49:17.351Z,98927.69
2023-03-31T14:49:49.317Z,98784.47
2023-03-31T14:51:47.617Z,98935.84
2023-03-31T14:54:17.892Z,98925.69
2023-03-31T14:55:05.288Z,98773.38
2023-03-31T14:56:47.957Z,98925.56
2023-03-31T14:59:20.340Z,98928.09
2023-03-31T15:00:20.824Z,98777.63
2023-03-31T15:01:50.611Z,98922.75
2023-03-31T15:04:25.865Z,98923.47
2023-03-31T15:05:36.010Z,98778.91
2023-03-31T15:07:00.270Z,98921.13
2023-03-31T15:09:30.620Z,98926.91
2023-03-31T15:10:54.086Z,98778.91
2023-03-31T15:12:00.705Z,98916.66
2023-03-31T15:14:29.415Z,98921.19
2023-03-31T15:16:14.058Z,98778.91
2023-03-31T15:16:59.746Z,98926.38
2023-03-31T15:19:29.560Z,98907.16
2023-03-31T15:21:29.040Z,98777.44
2023-03-31T15:22:02.598Z,98929.19
2023-03-31T15:24:31.020Z,98932.44
2023-03-31T15:26:43.966Z,98780.97
2023-03-31T15:26:59.644Z,98934.53
2023-03-31T15:29:29.998Z,98917.38
2023-03-31T15:31:59.179Z,98778.19
2023-03-31T15:32:00.148Z,98916.22
2023-03-31T15:34:28.974Z,98924.38
2023-03-31T15:36:59.308Z,98921.84
2023-03-31T15:37:14.020Z,98773.94
2023-03-31T15:39:29.449Z,98928.56
2023-03-31T15:41:58.054Z,98920.41
2023-03-31T15:42:28.985Z,98771.88
2023-03-31T15:44:28.031Z,98915.78
2023-03-31T15:46:56.813Z,98913.94
2023-03-31T15:47:44.313Z,98775.41
2023-03-31T15:49:27.081Z,98923.09
2023-03-31T15:51:57.445Z,98915.53
2023-03-31T15:53:00.006Z,98769.09
2023-03-31T15:54:26.816Z,98915.53
2023-03-31T15:56:57.184Z,98913.44
2023-03-31T15:58:15.015Z,98760.78
2023-03-31T15:59:34.449Z,98926.63
2023-03-31T16:02:10.571Z,98906.44
2023-03-31T16:03:30.356Z,98764.84
2023-03-31T16:04:40.537Z,98903.66
2023-03-31T16:07:10.974Z,98919.69
2023-03-31T16:08:46.302Z,98770.41
2023-03-31T16:09:40.019Z,98915.59
2023-03-31T16:12:09.836Z,98915.44
2023-03-31T16:14:02.000Z,98766.88
2023-03-31T16:14:40.141Z,98912.66
2023-03-31T16:17:10.403Z,98914.50
2023-03-31T16:19:16.731Z,98750.97
2023-03-31T16:19:40.701Z,98902.28
2023-03-31T16:22:11.248Z,98909.59
2023-03-31T16:24:31.998Z,98767.63
2023-03-31T16:24:40.343Z,98913.31
2023-03-31T16:27:09.098Z,98906.56
2023-03-31T16:29:39.423Z,98915.13
2023-03-31T16:29:47.033Z,98767.63
2023-03-31T16:32:12.091Z,98908.38
2023-03-31T16:34:42.407Z,98909.78
2023-03-31T16:35:02.044Z,98752.28
2023-03-31T16:37:12.638Z,98902.38
2023-03-31T16:39:41.279Z,98902.38
2023-03-31T16:40:17.106Z,98752.28
2023-03-31T16:42:11.308Z,98904.91
2023-03-31T16:44:41.509Z,98896.91
2023-03-31T16:45:32.335Z,98749.53
2023-03-31T16:47:17.410Z,98882.00
2023-03-31T16:49:48.672Z,98898.03
2023-03-31T16:50:48.325Z,98745.41
2023-03-31T16:52:17.468Z,98892.56
2023-03-31T16:54:46.854Z,98888.34
2023-03-31T16:56:03.846Z,98742.63
2023-03-31T16:57:16.702Z,98890.91
2023-03-31T16:59:46.118Z,98889.50
2023-03-31T17:01:19.162Z,98743.38
2023-03-31T17:02:16.495Z,98898.78
2023-03-31T17:04:45.860Z,98883.22
2023-03-31T17:06:34.347Z,98732.84
2023-03-31T17:07:16.217Z,98880.44
2023-03-31T17:09:46.156Z,98889.00
2023-03-31T17:11:50.392Z,98725.22
2023-03-31T17:12:14.920Z,98876.91
2023-03-31T17:14:45.700Z,98886.31
2023-03-31T17:17:06.007Z,98728.00
2023-03-31T17:17:17.889Z,98872.97
2023-03-31T17:19:47.528Z,98876.34
2023-03-31T17:22:17.940Z,98878.31
2023-03-31T17:22:20.969Z,98725.81
2023-03-31T17:24:46.997Z,98878.31
2023-03-31T17:27:15.676Z,98880.16
2023-03-31T17:27:35.820Z,98727.31
2023-03-31T17:29:45.987Z,98883.41
2023-03-31T17:32:16.286Z,98877.91
2023-03-31T17:32:52.277Z,98724.53
2023-03-31T17:34:46.634Z,98881.16
2023-03-31T17:37:16.568Z,98880.34
2023-03-31T17:38:08.040Z,98724.53
2023-03-31T17:39:45.684Z,98877.53
2023-03-31T17:42:14.403Z,98878.69
2023-03-31T17:43:23.001Z,98721.75
2023-03-31T17:44:44.683Z,98871.94
2023-03-31T17:47:14.972Z,98867.84
2023-03-31T17:48:38.050Z,98715.44
2023-03-31T17:49:45.337Z,98867.75
2023-03-31T17:52:15.733Z,98861.69
2023-03-31T17:53:53.094Z,98713.94
2023-03-31T17:54:45.319Z,98857.53
2023-03-31T17:57:14.076Z,98869.44
2023-03-31T17:59:07.765Z,98714.72
2023-03-31T17:59:46.614Z,98860.72
2023-03-31T18:02:15.422Z,98867.34
2023-03-31T18:04:23.082Z,98718.75
2023-03-31T18:04:45.820Z,98870.00
2023-03-31T18:07:16.293Z,98872.56
2023-03-31T18:09:38.456Z,98717.50
2023-03-31T18:09:45.744Z,98865.81
2023-03-31T18:12:16.113Z,98864.41
2023-03-31T18:14:45.540Z,98869.75
2023-03-31T18:14:53.999Z,98713.94
2023-03-31T18:17:14.895Z,98866.97
2023-03-31T18:19:44.930Z,98870.88
2023-03-31T18:20:09.315Z,98725.06
2023-03-31T18:22:13.312Z,98874.81
2023-03-31T18:24:43.627Z,98865.53
2023-03-31T18:25:25.006Z,98721.53
2023-03-31T18:27:13.954Z,98870.88
2023-03-31T18:29:44.271Z,98861.47
2023-03-31T18:30:40.298Z,98713.22
2023-03-31T18:32:14.650Z,98867.53
2023-03-31T18:34:44.666Z,98867.41
2023-03-31T18:35:56.101Z,98717.28
2023-03-31T18:37:12.990Z,98856.84
2023-03-31T18:39:42.089Z,98862.72
2023-03-31T18:41:10.758Z,98711.72
2023-03-31T18:42:10.603Z,98865.28
2023-03-31T18:44:39.280Z,98861.78
2023-03-31T18:46:26.091Z,98723.56
2023-03-31T18:47:07.708Z,98865.13
2023-03-31T18:49:36.840Z,98874.56
2023-03-31T18:51:40.779Z,98720.06
2023-03-31T18:52:05.600Z,98866.56
2023-03-31T18:54:35.443Z,98859.00
2023-03-31T18:56:56.075Z,98716.53
2023-03-31T18:57:05.849Z,98863.63
2023-03-31T18:59:36.252Z,98861.66
2023-03-31T19:02:06.687Z,98863.63
2023-03-31T19:02:11.071Z,98711.00
2023-03-31T19:04:37.020Z,98858.28
2023-03-31T19:07:06.879Z,98867.00
2023-03-31T19:07:25.985Z,98702.66
2023-03-31T19:09:35.939Z,98862.91
2023-03-31T19:12:04.360Z,98864.88
2023-03-31T19:12:41.016Z,98718.63
2023-03-31T19:14:33.095Z,98854.09
2023-03-31T19:17:03.187Z,98860.84
2023-03-31T19:17:55.853Z,98711.00
2023-03-31T19:19:31.438Z,98852.69
2023-03-31T19:22:00.677Z,98861.94
2023-03-31T19:23:11.033Z,98713.00
2023-03-31T19:24:30.914Z,98860.56
2023-03-31T19:27:01.204Z,98852.44
2023-03-31T19:28:27.124Z,98709.63
2023-03-31T19:29:31.092Z,98876.31
2023-03-31T19:31:59.800Z,98862.84
2023-03-31T19:33:42.024Z,98722.97
2023-03-31T19:34:29.669Z,98865.38
2023-03-31T19:36:59.543Z,98860.59
2023-03-31T19:38:57.406Z,98711.31
2023-03-31T19:39:28.470Z,98859.78
2023-03-31T19:41:57.157Z,98856.94
2023-03-31T19:44:13.116Z,98714.97
2023-03-31T19:44:27.150Z,98856.94
2023-03-31T19:46:55.592Z,98864.78
2023-03-31T19:49:24.323Z,98855.44
2023-03-31T19:49:27.768Z,98713.09
2023-03-31T19:51:54.596Z,98855.44
2023-03-31T19:54:24.412Z,98854.00
2023-03-31T19:54:43.373Z,98714.59